createdAt,value
2022-09-02T00:00:44.065Z,47.70
2022-09-02T00:01:44.080Z,42.43
2022-09-02T00:02:44.126Z,52.39
2022-09-02T00:03:44.047Z,49.01
2022-09-02T00:04:44.040Z,44.62
2022-09-02T00:05:44.043Z,38.41
2022-09-02T00:06:44.027Z,41.03
2022-09-02T00:07:44.050Z,36.51
2022-09-02T00:08:44.009Z,37.99
2022-09-02T00:09:43.999Z,36.21
2022-09-02T00:10:44.000Z,41.06
2022-09-02T00:11:44.052Z,47.51
2022-09-02T00:12:44.005Z,42.87
2022-09-02T00:13:43.974Z,44.59
2022-09-02T00:14:43.966Z,45.52
2022-09-02T00:15:43.967Z,50.17
2022-09-02T00:16:44.065Z,55.92
2022-09-02T00:17:43.968Z,49.88
2022-09-02T00:18:45.701Z,40.17
2022-09-02T00:19:43.930Z,38.09
2022-09-02T00:20:43.918Z,53.13
2022-09-02T00:21:43.908Z,45.99
2022-09-02T00:22:43.927Z,39.84
2022-09-02T00:23:43.906Z,54.27
2022-09-02T00:24:43.888Z,47.10
2022-09-02T00:25:43.882Z,45.04
2022-09-02T00:26:43.878Z,44.13
2022-09-02T00:27:43.893Z,42.35
2022-09-02T00:28:44.282Z,37.10
2022-09-02T00:29:44.831Z,48.62
2022-09-02T00:30:44.835Z,49.37
2022-09-02T00:31:43.911Z,41.05
2022-09-02T00:32:43.864Z,45.32
2022-09-02T00:33:43.833Z,48.64
2022-09-02T00:34:43.837Z,42.22
2022-09-02T00:35:43.799Z,44.45
2022-09-02T00:36:43.799Z,42.47
2022-09-02T00:37:43.777Z,41.70
2022-09-02T00:38:44.801Z,46.52
2022-09-02T00:39:43.771Z,46.08
2022-09-02T00:40:43.837Z,48.50
2022-09-02T00:41:43.753Z,43.23
2022-09-02T00:42:43.749Z,51.99
2022-09-02T00:43:43.766Z,46.55
2022-09-02T00:44:43.724Z,47.94
2022-09-02T00:45:43.759Z,50.16
2022-09-02T00:46:43.733Z,49.17
2022-09-02T00:47:43.729Z,48.69
2022-09-02T00:48:43.700Z,43.83
2022-09-02T00:49:43.694Z,51.25
2022-09-02T00:50:43.682Z,48.79
2022-09-02T00:51:43.666Z,44.12
2022-09-02T00:52:44.689Z,56.11
2022-09-02T00:53:43.658Z,46.36
2022-09-02T00:54:43.652Z,49.22
2022-09-02T00:55:43.648Z,41.52
2022-09-02T00:56:43.639Z,45.57
2022-09-02T00:57:43.653Z,52.98
2022-09-02T00:58:43.627Z,37.26
2022-09-02T00:59:43.615Z,35.04
2022-09-02T01:00:43.737Z,42.62
2022-09-02T01:01:43.656Z,52.59
2022-09-02T01:02:43.627Z,51.27
2022-09-02T01:03:43.575Z,45.03
2022-09-02T01:04:43.577Z,51.99
2022-09-02T01:05:43.963Z,46.53
2022-09-02T01:06:44.557Z,47.36
2022-09-02T01:07:43.576Z,49.16
2022-09-02T01:08:43.548Z,46.96
2022-09-02T01:09:43.534Z,44.39
2022-09-02T01:10:43.534Z,38.46
2022-09-02T01:11:43.524Z,41.49
2022-09-02T01:12:43.543Z,44.68
2022-09-02T01:13:43.551Z,46.98
2022-09-02T01:14:43.498Z,48.17
2022-09-02T01:15:43.490Z,40.91
2022-09-02T01:16:43.550Z,41.44
2022-09-02T01:17:43.511Z,42.87
2022-09-02T01:18:43.467Z,39.37
2022-09-02T01:19:43.453Z,45.33
2022-09-02T01:20:43.455Z,44.32
2022-09-02T01:21:43.447Z,49.88
2022-09-02T01:22:43.465Z,44.62
2022-09-02T01:23:43.431Z,43.13
2022-09-02T01:24:43.429Z,46.26
2022-09-02T01:25:43.422Z,45.02
2022-09-02T01:26:43.415Z,52.65
2022-09-02T01:27:43.428Z,56.99
2022-09-02T01:28:43.396Z,51.58
2022-09-02T01:29:43.387Z,45.63
2022-09-02T01:30:43.377Z,56.94
2022-09-02T01:31:43.419Z,46.01
2022-09-02T01:32:43.396Z,59.80
2022-09-02T01:33:43.445Z,54.33
2022-09-02T01:34:43.345Z,48.26
2022-09-02T01:35:43.344Z,43.75
2022-09-02T01:36:43.329Z,42.50
2022-09-02T01:37:47.387Z,38.02
2022-09-02T01:38:44.314Z,45.98
2022-09-02T01:39:43.369Z,44.99
2022-09-02T01:40:43.376Z,51.50
2022-09-02T01:41:43.293Z,50.98
2022-09-02T01:42:43.286Z,48.70
2022-09-02T01:43:43.306Z,48.67
2022-09-02T01:44:43.266Z,55.49
2022-09-02T01:45:43.260Z,49.61
2022-09-02T01:46:43.319Z,45.69
2022-09-02T01:47:43.271Z,48.53
2022-09-02T01:48:43.240Z,48.89
2022-09-02T01:49:43.227Z,44.46
2022-09-02T01:50:46.766Z,41.50
2022-09-02T01:51:44.225Z,47.93
2022-09-02T01:52:43.199Z,53.28
2022-09-02T01:53:43.438Z,44.27
2022-09-02T01:54:43.191Z,43.57
2022-09-02T01:55:43.183Z,45.37
2022-09-02T01:56:43.177Z,40.93
2022-09-02T01:57:43.171Z,42.03
2022-09-02T01:58:43.416Z,46.43
2022-09-02T01:59:43.151Z,41.22
2022-09-02T02:00:43.158Z,40.16
2022-09-02T02:01:43.175Z,50.86
2022-09-02T02:02:43.312Z,48.07
2022-09-02T02:03:43.147Z,44.04
2022-09-02T02:04:43.114Z,41.92
2022-09-02T02:05:43.106Z,52.00
2022-09-02T02:06:43.098Z,44.58
2022-09-02T02:07:43.103Z,35.53
2022-09-02T02:08:43.106Z,37.96
2022-09-02T02:09:43.074Z,41.94
2022-09-02T02:10:43.083Z,45.40
2022-09-02T02:11:43.053Z,55.36
2022-09-02T02:12:44.053Z,56.91
2022-09-02T02:13:43.156Z,44.78
2022-09-02T02:14:43.044Z,44.67
2022-09-02T02:15:43.029Z,47.21
2022-09-02T02:16:43.025Z,54.58
2022-09-02T02:17:43.022Z,52.30
2022-09-02T02:18:43.044Z,50.68
2022-09-02T02:19:43.004Z,52.85
2022-09-02T02:20:44.882Z,54.09
2022-09-02T02:21:42.979Z,51.12
2022-09-02T02:22:42.987Z,45.10
2022-09-02T02:23:43.023Z,44.97
2022-09-02T02:24:42.967Z,46.05
2022-09-02T02:25:42.965Z,46.36
2022-09-02T02:26:43.000Z,42.46
2022-09-02T02:27:43.566Z,45.43
2022-09-02T02:28:42.965Z,52.70
2022-09-02T02:29:42.926Z,57.13
2022-09-02T02:30:42.928Z,46.13
2022-09-02T02:31:42.945Z,52.41
2022-09-02T02:32:42.905Z,51.14
2022-09-02T02:33:42.935Z,49.37
2022-09-02T02:34:42.897Z,47.46
2022-09-02T02:35:42.886Z,49.32
2022-09-02T02:36:42.877Z,49.16
2022-09-02T02:37:42.871Z,57.85
2022-09-02T02:38:42.889Z,51.87
2022-09-02T02:39:42.860Z,49.51
2022-09-02T02:40:42.878Z,61.36
2022-09-02T02:41:44.875Z,55.03
2022-09-02T02:42:42.842Z,49.29
2022-09-02T02:43:42.854Z,47.61
2022-09-02T02:44:42.822Z,53.08
2022-09-02T02:45:42.817Z,45.82
2022-09-02T02:46:42.978Z,48.66
2022-09-02T02:47:42.794Z,56.69
2022-09-02T02:48:42.811Z,49.83
2022-09-02T02:49:42.781Z,48.30
2022-09-02T02:50:42.770Z,48.84
2022-09-02T02:51:42.766Z,50.03
2022-09-02T02:52:42.765Z,46.91
2022-09-02T02:53:42.783Z,48.80
2022-09-02T02:54:42.741Z,50.66
2022-09-02T02:55:42.734Z,52.87
2022-09-02T02:56:42.728Z,52.42
2022-09-02T02:57:42.727Z,57.37
2022-09-02T02:58:42.744Z,54.56
2022-09-02T02:59:42.709Z,47.28
2022-09-02T03:00:42.712Z,52.79
2022-09-02T03:01:42.733Z,42.59
2022-09-02T03:02:42.804Z,44.02
2022-09-02T03:03:42.677Z,45.95
2022-09-02T03:04:42.698Z,53.19
2022-09-02T03:05:42.655Z,50.91
2022-09-02T03:06:42.654Z,50.65
2022-09-02T03:07:42.659Z,53.82
2022-09-02T03:08:42.639Z,46.62
2022-09-02T03:09:42.667Z,52.78
2022-09-02T03:10:42.630Z,52.27
2022-09-02T03:11:42.611Z,52.18
2022-09-02T03:12:42.604Z,49.68
2022-09-02T03:13:42.595Z,52.70
2022-09-02T03:14:42.626Z,59.47
2022-09-02T03:15:42.621Z,52.72
2022-09-02T03:16:42.598Z,52.95
2022-09-02T03:17:42.570Z,61.50
2022-09-02T03:18:42.600Z,58.11
2022-09-02T03:19:42.578Z,55.34
2022-09-02T03:20:42.551Z,53.06
2022-09-02T03:21:42.539Z,56.83
2022-09-02T03:22:42.527Z,52.40
2022-09-02T03:23:42.533Z,54.51
2022-09-02T03:24:42.538Z,51.87
2022-09-02T03:25:42.503Z,58.02
2022-09-02T03:26:42.498Z,54.86
2022-09-02T03:27:42.492Z,52.85
2022-09-02T03:28:42.480Z,56.18
2022-09-02T03:29:42.501Z,53.41
2022-09-02T03:30:42.476Z,52.37
2022-09-02T03:31:42.487Z,50.46
2022-09-02T03:32:42.454Z,58.73
2022-09-02T03:33:42.443Z,52.92
2022-09-02T03:34:42.469Z,55.76
2022-09-02T03:35:42.438Z,49.80
2022-09-02T03:36:42.416Z,54.80
2022-09-02T03:37:42.423Z,56.37
2022-09-02T03:38:42.427Z,56.67
2022-09-02T03:39:42.430Z,51.04
2022-09-02T03:40:42.485Z,62.02
2022-09-02T03:41:42.406Z,54.95
2022-09-02T03:42:42.375Z,53.87
2022-09-02T03:43:42.368Z,54.05
2022-09-02T03:44:42.388Z,54.22
2022-09-02T03:45:42.385Z,54.37
2022-09-02T03:46:42.338Z,53.75
2022-09-02T03:47:42.333Z,56.29
2022-09-02T03:48:42.352Z,53.91
2022-09-02T03:49:43.802Z,54.74
2022-09-02T03:50:42.310Z,51.18
2022-09-02T03:51:42.307Z,54.44
2022-09-02T03:52:42.297Z,57.22
2022-09-02T03:53:42.289Z,53.31
2022-09-02T03:54:42.306Z,48.49
2022-09-02T03:55:42.269Z,57.91
2022-09-02T03:56:42.267Z,60.10
2022-09-02T03:57:42.253Z,50.54
2022-09-02T03:58:42.266Z,47.41
2022-09-02T03:59:42.271Z,54.83
2022-09-02T04:00:42.235Z,59.98
2022-09-02T04:01:42.264Z,53.29
2022-09-02T04:02:42.287Z,55.27
2022-09-02T04:03:42.215Z,49.36
2022-09-02T04:04:42.242Z,55.25
2022-09-02T04:05:42.191Z,55.35
2022-09-02T04:06:42.188Z,54.31
2022-09-02T04:07:42.183Z,54.06
2022-09-02T04:08:42.170Z,50.17
2022-09-02T04:09:46.465Z,51.97
2022-09-02T04:10:43.154Z,56.70
2022-09-02T04:11:42.145Z,54.70
2022-09-02T04:12:42.142Z,53.38
2022-09-02T04:13:42.133Z,54.38
2022-09-02T04:14:42.152Z,61.21
2022-09-02T04:15:42.130Z,55.82
2022-09-02T04:16:42.108Z,52.86
2022-09-02T04:17:42.095Z,55.73
2022-09-02T04:18:42.084Z,54.54
2022-09-02T04:19:42.105Z,54.14
2022-09-02T04:20:42.070Z,56.86
2022-09-02T04:21:42.077Z,55.73
2022-09-02T04:22:42.045Z,57.23
2022-09-02T04:23:43.053Z,54.49
2022-09-02T04:24:42.076Z,56.81
2022-09-02T04:25:42.039Z,57.91
2022-09-02T04:26:45.219Z,54.30
2022-09-02T04:27:42.022Z,54.54
2022-09-02T04:28:42.047Z,55.71
2022-09-02T04:29:42.031Z,57.61
2022-09-02T04:30:41.998Z,55.83
2022-09-02T04:31:42.035Z,52.51
2022-09-02T04:32:41.980Z,53.78
2022-09-02T04:33:41.972Z,56.12
2022-09-02T04:34:41.989Z,57.14
2022-09-02T04:35:41.966Z,55.01
2022-09-02T04:36:41.957Z,54.49
2022-09-02T04:37:41.940Z,58.43
2022-09-02T04:38:41.935Z,58.66
2022-09-02T04:39:41.955Z,56.78
2022-09-02T04:40:42.062Z,56.74
2022-09-02T04:41:41.916Z,57.29
2022-09-02T04:42:41.911Z,59.14
2022-09-02T04:43:41.899Z,57.21
2022-09-02T04:44:41.920Z,58.08
2022-09-02T04:45:41.889Z,56.50
2022-09-02T04:46:41.903Z,56.27
2022-09-02T04:47:41.865Z,56.84
2022-09-02T04:48:41.863Z,59.35
2022-09-02T04:49:41.878Z,55.82
2022-09-02T04:50:41.844Z,57.40
2022-09-02T04:51:41.843Z,56.89
2022-09-02T04:52:41.832Z,55.83
2022-09-02T04:53:41.829Z,56.30
2022-09-02T04:54:41.834Z,56.28
2022-09-02T04:55:41.809Z,56.01
2022-09-02T04:56:41.790Z,57.85
2022-09-02T04:57:41.786Z,59.83
2022-09-02T04:58:41.774Z,56.76
2022-09-02T04:59:41.806Z,57.38
2022-09-02T05:00:41.765Z,54.99
2022-09-02T05:01:41.844Z,53.06
2022-09-02T05:02:41.822Z,61.21
2022-09-02T05:03:41.749Z,54.67
2022-09-02T05:04:41.757Z,56.01
2022-09-02T05:05:41.729Z,61.33
2022-09-02T05:06:44.286Z,56.83
2022-09-02T05:07:42.736Z,56.97
2022-09-02T05:08:41.706Z,56.48
2022-09-02T05:09:41.721Z,56.93
2022-09-02T05:10:41.700Z,57.89
2022-09-02T05:11:41.680Z,55.70
2022-09-02T05:12:41.679Z,56.99
2022-09-02T05:13:41.667Z,54.86
2022-09-02T05:14:41.656Z,56.70
2022-09-02T05:15:41.709Z,56.35
2022-09-02T05:16:41.642Z,57.49
2022-09-02T05:17:41.636Z,58.41
2022-09-02T05:18:41.628Z,60.57
2022-09-02T05:19:41.632Z,58.29
2022-09-02T05:20:41.641Z,57.04
2022-09-02T05:21:41.609Z,53.45
2022-09-02T05:22:41.650Z,55.07
2022-09-02T05:23:41.592Z,56.21
2022-09-02T05:24:41.578Z,55.84
2022-09-02T05:25:41.604Z,56.63
2022-09-02T05:26:41.566Z,55.89
2022-09-02T05:27:41.562Z,53.79
2022-09-02T05:28:41.553Z,58.69
2022-09-02T05:29:45.216Z,55.10
2022-09-02T05:30:42.617Z,57.36
2022-09-02T05:31:41.532Z,57.58
2022-09-02T05:32:41.538Z,55.64
2022-09-02T05:33:41.516Z,55.42
2022-09-02T05:34:41.498Z,60.89
2022-09-02T05:35:43.253Z,56.11
2022-09-02T05:36:42.088Z,57.21
2022-09-02T05:37:41.497Z,53.90
2022-09-02T05:38:41.476Z,59.05
2022-09-02T05:39:41.474Z,56.28
2022-09-02T05:40:41.579Z,52.01
2022-09-02T05:41:41.467Z,58.38
2022-09-02T05:42:41.447Z,57.89
2022-09-02T05:43:41.449Z,54.49
2022-09-02T05:44:41.444Z,56.20
2022-09-02T05:45:41.495Z,58.12
2022-09-02T05:46:44.451Z,59.52
2022-09-02T05:47:42.407Z,57.48
2022-09-02T05:48:41.398Z,56.84
2022-09-02T05:49:41.388Z,57.47
2022-09-02T05:50:41.413Z,54.08
2022-09-02T05:51:41.382Z,57.30
2022-09-02T05:52:41.368Z,56.08
2022-09-02T05:53:41.363Z,58.89
2022-09-02T05:54:41.350Z,55.29
2022-09-02T05:55:41.374Z,57.29
2022-09-02T05:56:44.997Z,61.80
2022-09-02T05:57:41.335Z,51.84
2022-09-02T05:58:41.328Z,52.15
2022-09-02T05:59:41.311Z,56.91
2022-09-02T06:00:41.340Z,54.15
2022-09-02T06:01:41.354Z,51.10
2022-09-02T06:02:41.350Z,56.05
2022-09-02T06:03:41.283Z,52.88
2022-09-02T06:04:41.276Z,50.51
2022-09-02T06:05:41.296Z,59.09
2022-09-02T06:06:41.260Z,56.65
2022-09-02T06:07:41.255Z,55.65
2022-09-02T06:08:41.249Z,56.28
2022-09-02T06:09:41.248Z,58.85
2022-09-02T06:10:41.259Z,55.94
2022-09-02T06:11:41.230Z,58.23
2022-09-02T06:12:42.764Z,57.02
2022-09-02T06:13:42.214Z,60.80
2022-09-02T06:14:41.200Z,52.72
2022-09-02T06:15:41.235Z,54.13
2022-09-02T06:16:41.185Z,54.32
2022-09-02T06:17:41.170Z,55.08
2022-09-02T06:18:41.172Z,58.33
2022-09-02T06:19:41.160Z,55.59
2022-09-02T06:20:41.184Z,58.83
2022-09-02T06:21:41.157Z,57.62
2022-09-02T06:22:41.136Z,58.18
2022-09-02T06:23:41.129Z,54.66
2022-09-02T06:24:41.133Z,56.59
2022-09-02T06:25:41.136Z,56.82
2022-09-02T06:26:41.109Z,57.01
2022-09-02T06:27:41.097Z,58.36
2022-09-02T06:28:41.097Z,55.96
2022-09-02T06:29:41.089Z,54.88
2022-09-02T06:30:41.155Z,56.97
2022-09-02T06:31:41.070Z,56.99
2022-09-02T06:32:41.056Z,56.77
2022-09-02T06:33:41.050Z,57.08
2022-09-02T06:34:41.056Z,56.23
2022-09-02T06:35:41.067Z,56.79
2022-09-02T06:36:41.032Z,56.58
2022-09-02T06:37:41.020Z,56.57
2022-09-02T06:38:45.246Z,57.16
2022-09-02T06:39:42.016Z,56.34
2022-09-02T06:40:41.088Z,54.62
2022-09-02T06:41:40.989Z,56.27
2022-09-02T06:42:40.988Z,53.03
2022-09-02T06:43:42.652Z,61.14
2022-09-02T06:44:40.968Z,55.00
2022-09-02T06:45:40.987Z,58.15
2022-09-02T06:46:40.984Z,62.44
2022-09-02T06:47:40.940Z,56.56
2022-09-02T06:48:40.948Z,57.31
2022-09-02T06:49:40.933Z,56.57
2022-09-02T06:50:40.945Z,56.01
2022-09-02T06:51:40.974Z,56.27
2022-09-02T06:52:40.912Z,55.09
2022-09-02T06:53:40.915Z,52.61
2022-09-02T06:54:40.887Z,56.61
2022-09-02T06:55:40.909Z,60.37
2022-09-02T06:56:40.868Z,56.25
2022-09-02T06:57:40.862Z,54.93
2022-09-02T06:58:40.853Z,55.14
2022-09-02T06:59:40.850Z,57.54
2022-09-02T07:00:40.862Z,55.25
2022-09-02T07:01:41.098Z,53.11
2022-09-02T07:02:40.830Z,51.93
2022-09-02T07:03:40.828Z,57.17
2022-09-02T07:04:40.807Z,55.19
2022-09-02T07:05:40.833Z,53.09
2022-09-02T07:06:40.793Z,53.37
2022-09-02T07:07:40.799Z,57.60
2022-09-02T07:08:40.788Z,55.79
2022-09-02T07:09:40.785Z,58.86
2022-09-02T07:10:40.810Z,57.06
2022-09-02T07:11:40.763Z,52.53
2022-09-02T07:12:40.758Z,55.83
2022-09-02T07:13:40.747Z,56.29
2022-09-02T07:14:40.743Z,57.21
2022-09-02T07:15:40.762Z,56.40
2022-09-02T07:16:40.783Z,58.18
2022-09-02T07:17:40.716Z,56.76
2022-09-02T07:18:40.713Z,52.56
2022-09-02T07:19:40.706Z,59.46
2022-09-02T07:20:40.731Z,59.84
2022-09-02T07:21:40.690Z,55.37
2022-09-02T07:22:40.725Z,56.28
2022-09-02T07:23:41.204Z,56.19
2022-09-02T07:24:41.668Z,52.49
2022-09-02T07:25:40.688Z,56.23
2022-09-02T07:26:40.655Z,56.87
2022-09-02T07:27:40.652Z,51.45
2022-09-02T07:28:40.635Z,52.90
2022-09-02T07:29:40.628Z,57.99
2022-09-02T07:30:40.712Z,57.60
2022-09-02T07:31:40.621Z,54.51
2022-09-02T07:32:40.619Z,60.17
2022-09-02T07:33:40.604Z,56.05
2022-09-02T07:34:40.597Z,55.82
2022-09-02T07:35:40.635Z,57.69
2022-09-02T07:36:40.588Z,57.01
2022-09-02T07:37:40.579Z,57.81
2022-09-02T07:38:40.590Z,57.61
2022-09-02T07:39:40.577Z,56.66
2022-09-02T07:40:40.579Z,57.35
2022-09-02T07:41:40.584Z,53.78
2022-09-02T07:42:40.558Z,56.46
2022-09-02T07:43:40.534Z,61.73
2022-09-02T07:44:40.516Z,57.16
2022-09-02T07:45:40.538Z,56.98
2022-09-02T07:46:40.532Z,55.55
2022-09-02T07:47:40.498Z,61.09
2022-09-02T07:48:40.495Z,56.39
2022-09-02T07:50:42.484Z,53.38
2022-09-02T07:51:40.501Z,58.47
2022-09-02T07:52:40.462Z,56.13
2022-09-02T07:53:40.463Z,54.86
2022-09-02T07:54:40.448Z,60.24
2022-09-02T07:55:40.475Z,57.42
2022-09-02T07:56:40.461Z,49.52
2022-09-02T07:57:40.431Z,53.95
2022-09-02T07:58:40.429Z,55.16
2022-09-02T07:59:40.417Z,57.49
2022-09-02T08:00:40.412Z,56.93
2022-09-02T08:02:40.550Z,56.76
2022-09-02T08:03:40.381Z,53.85
2022-09-02T08:04:40.381Z,57.12
2022-09-02T08:05:40.377Z,55.59
2022-09-02T08:06:40.395Z,54.01
2022-09-02T08:07:40.349Z,56.66
2022-09-02T08:08:40.362Z,54.73
2022-09-02T08:09:40.347Z,57.06
2022-09-02T08:10:40.331Z,54.99
2022-09-02T08:11:40.348Z,59.16
2022-09-02T08:12:40.328Z,57.03
2022-09-02T08:13:40.309Z,56.96
2022-09-02T08:14:40.301Z,56.55
2022-09-02T08:15:40.306Z,54.47
2022-09-02T08:16:40.382Z,53.93
2022-09-02T08:17:40.327Z,55.15
2022-09-02T08:18:40.287Z,57.19
2022-09-02T08:19:40.274Z,56.55
2022-09-02T08:20:40.258Z,54.81
2022-09-02T08:21:40.285Z,53.90
2022-09-02T08:22:40.251Z,58.63
2022-09-02T08:23:40.510Z,55.19
2022-09-02T08:24:40.220Z,54.23
2022-09-02T08:25:40.219Z,50.88
2022-09-02T08:26:40.236Z,54.48
2022-09-02T08:27:40.218Z,56.02
2022-09-02T08:28:40.201Z,55.07
2022-09-02T08:29:40.222Z,56.90
2022-09-02T08:30:40.177Z,56.33
2022-09-02T08:31:40.286Z,60.77
2022-09-02T08:32:40.163Z,57.64
2022-09-02T08:33:40.168Z,60.01
2022-09-02T08:34:40.148Z,56.54
2022-09-02T08:35:40.144Z,51.51
2022-09-02T08:36:40.166Z,55.71
2022-09-02T08:37:41.174Z,56.09
2022-09-02T08:38:40.142Z,62.52
2022-09-02T08:39:40.120Z,55.95
2022-09-02T08:40:40.161Z,55.23
2022-09-02T08:41:40.140Z,52.00
2022-09-02T08:42:40.085Z,55.96
2022-09-02T08:43:40.130Z,59.27
2022-09-02T08:44:40.113Z,54.97
2022-09-02T08:45:40.123Z,56.40
2022-09-02T08:46:40.081Z,54.26
2022-09-02T08:47:40.045Z,52.40
2022-09-02T08:48:40.036Z,55.02
2022-09-02T08:49:40.036Z,54.77
2022-09-02T08:50:40.023Z,60.56
2022-09-02T08:51:40.079Z,55.49
2022-09-02T08:52:40.004Z,54.38
2022-09-02T08:53:40.006Z,54.75
2022-09-02T08:54:40.035Z,52.19
2022-09-02T08:55:39.985Z,55.63
2022-09-02T08:56:40.002Z,54.97
2022-09-02T08:57:43.444Z,58.29
2022-09-02T08:58:39.968Z,55.47
2022-09-02T09:00:41.034Z,53.99
2022-09-02T09:01:39.968Z,54.89
2022-09-02T09:02:43.380Z,54.82
2022-09-02T09:03:41.923Z,54.05
2022-09-02T09:04:39.914Z,53.39
2022-09-02T09:05:39.921Z,55.14
2022-09-02T09:06:39.932Z,57.66
2022-09-02T09:07:39.901Z,57.43
2022-09-02T09:08:39.885Z,60.32
2022-09-02T09:09:39.910Z,54.89
2022-09-02T09:10:39.877Z,57.56
2022-09-02T09:11:39.896Z,51.36
2022-09-02T09:12:39.855Z,56.37
2022-09-02T09:13:41.541Z,54.93
2022-09-02T09:14:40.836Z,53.38
2022-09-02T09:15:39.833Z,52.98
2022-09-02T09:16:39.901Z,57.97
2022-09-02T09:17:39.824Z,53.44
2022-09-02T09:18:39.807Z,58.34
2022-09-02T09:19:39.802Z,54.40
2022-09-02T09:20:39.793Z,53.34
2022-09-02T09:21:39.812Z,54.06
2022-09-02T09:22:39.786Z,55.02
2022-09-02T09:23:39.778Z,55.41
2022-09-02T09:24:39.801Z,55.40
2022-09-02T09:25:39.774Z,55.84
2022-09-02T09:26:39.790Z,50.65
2022-09-02T09:27:39.752Z,51.41
2022-09-02T09:28:39.717Z,54.27
2022-09-02T09:29:40.749Z,55.07
2022-09-02T09:30:39.726Z,54.41
2022-09-02T09:31:39.804Z,54.38
2022-09-02T09:32:39.719Z,51.55
2022-09-02T09:33:39.691Z,55.10
2022-09-02T09:34:39.689Z,56.76
2022-09-02T09:35:39.662Z,55.68
2022-09-02T09:36:40.708Z,54.44
2022-09-02T09:37:39.672Z,58.05
2022-09-02T09:38:39.660Z,54.36
2022-09-02T09:39:39.649Z,56.06
2022-09-02T09:40:39.676Z,52.91
2022-09-02T09:41:39.627Z,59.29
2022-09-02T09:42:39.677Z,54.61
2022-09-02T09:43:39.615Z,54.38
2022-09-02T09:44:39.638Z,60.36
2022-09-02T09:45:39.642Z,54.69
2022-09-02T09:46:39.595Z,55.52
2022-09-02T09:47:39.612Z,54.80
2022-09-02T09:48:39.578Z,54.84
2022-09-02T09:49:39.566Z,58.40
2022-09-02T09:50:39.556Z,53.57
2022-09-02T09:51:49.672Z,56.64
2022-09-02T09:52:40.570Z,54.88
2022-09-02T09:53:39.540Z,56.61
2022-09-02T09:54:39.535Z,57.07
2022-09-02T09:55:39.914Z,55.73
2022-09-02T09:56:40.518Z,51.63
2022-09-02T09:57:39.544Z,56.40
2022-09-02T09:58:39.506Z,56.64
2022-09-02T09:59:39.500Z,56.10
2022-09-02T10:00:39.515Z,53.41
2022-09-02T10:01:39.483Z,57.16
2022-09-02T10:02:39.552Z,56.03
2022-09-02T10:03:39.472Z,54.14
2022-09-02T10:04:43.411Z,54.96
2022-09-02T10:05:40.458Z,55.47
2022-09-02T10:06:39.444Z,56.01
2022-09-02T10:07:39.646Z,53.58
2022-09-02T10:08:39.465Z,51.49
2022-09-02T10:09:39.481Z,55.58
2022-09-02T10:10:39.512Z,60.26
2022-09-02T10:11:39.435Z,57.81
2022-09-02T10:12:39.454Z,57.54
2022-09-02T10:13:39.392Z,55.27
2022-09-02T10:14:39.399Z,56.78
2022-09-02T10:15:40.380Z,57.92
2022-09-02T10:16:39.404Z,52.43
2022-09-02T10:17:39.418Z,57.00
2022-09-02T10:18:39.391Z,52.76
2022-09-02T10:19:39.339Z,58.53
2022-09-02T10:20:48.396Z,57.01
2022-09-02T10:21:45.030Z,60.17
2022-09-02T10:22:58.487Z,59.18
2022-09-02T10:23:40.313Z,53.94
2022-09-02T10:24:39.314Z,54.70
2022-09-02T10:25:39.295Z,59.69
2022-09-02T10:26:39.314Z,55.99
2022-09-02T10:27:39.304Z,56.27
2022-09-02T10:28:39.277Z,52.54
2022-09-02T10:29:39.268Z,56.02
2022-09-02T10:30:39.264Z,53.12
2022-09-02T10:31:39.295Z,48.74
2022-09-02T10:32:39.282Z,50.68
2022-09-02T10:33:39.243Z,55.26
2022-09-02T10:34:39.239Z,54.87
2022-09-02T10:35:39.227Z,53.45
2022-09-02T10:36:39.227Z,52.95
2022-09-02T10:37:39.233Z,50.59
2022-09-02T10:38:39.197Z,54.52
2022-09-02T10:39:39.194Z,56.00
2022-09-02T10:40:39.258Z,56.19
2022-09-02T10:41:39.233Z,55.16
2022-09-02T10:42:39.205Z,55.23
2022-09-02T10:43:39.168Z,57.66
2022-09-02T10:44:39.156Z,57.68
2022-09-02T10:45:39.151Z,60.55
2022-09-02T10:46:39.177Z,58.01
2022-09-02T10:47:39.188Z,60.70
2022-09-02T10:48:39.128Z,58.85
2022-09-02T10:49:39.120Z,57.88
2022-09-02T10:50:39.105Z,58.16
2022-09-02T10:51:39.102Z,55.23
2022-09-02T10:52:39.118Z,55.91
2022-09-02T10:53:39.089Z,55.87
2022-09-02T10:54:39.077Z,52.76
2022-09-02T10:55:39.075Z,57.13
2022-09-02T10:56:39.053Z,59.27
2022-09-02T10:57:40.077Z,60.05
2022-09-02T10:58:39.047Z,54.14
2022-09-02T10:59:39.049Z,55.62
2022-09-02T11:00:39.067Z,57.56
2022-09-02T11:01:39.512Z,56.03
2022-09-02T11:02:39.041Z,55.21
2022-09-02T11:03:39.051Z,52.81
2022-09-02T11:04:39.003Z,59.87
2022-09-02T11:05:40.011Z,56.73
2022-09-02T11:06:58.823Z,61.32
2022-09-02T11:07:41.019Z,52.58
2022-09-02T11:08:38.997Z,54.40
2022-09-02T11:09:38.969Z,53.57
2022-09-02T11:10:38.971Z,52.86
2022-09-02T11:11:38.968Z,55.73
2022-09-02T11:12:38.979Z,54.82
2022-09-02T11:13:38.939Z,55.71
2022-09-02T11:14:38.935Z,61.09
2022-09-02T11:15:38.932Z,56.46
2022-09-02T11:16:38.928Z,56.12
2022-09-02T11:17:38.952Z,55.49
2022-09-02T11:18:38.902Z,56.59
2022-09-02T11:19:38.930Z,58.66
2022-09-02T11:20:38.889Z,56.25
2022-09-02T11:21:38.883Z,56.26
2022-09-02T11:22:38.905Z,56.86
2022-09-02T11:23:38.871Z,56.88
2022-09-02T11:24:40.348Z,61.37
2022-09-02T11:25:38.854Z,56.93
2022-09-02T11:26:38.842Z,55.87
2022-09-02T11:27:42.596Z,57.44
2022-09-02T11:28:39.823Z,55.59
2022-09-02T11:29:38.819Z,58.84
2022-09-02T11:30:38.855Z,58.94
2022-09-02T11:31:39.303Z,58.98
2022-09-02T11:32:39.821Z,58.17
2022-09-02T11:33:38.789Z,58.00
2022-09-02T11:34:38.784Z,58.26
2022-09-02T11:35:38.788Z,56.71
2022-09-02T11:36:38.775Z,54.89
2022-09-02T11:37:38.778Z,57.08
2022-09-02T11:38:38.745Z,57.48
2022-09-02T11:39:54.175Z,60.63
2022-09-02T11:40:40.912Z,57.83
2022-09-02T11:41:38.747Z,56.02
2022-09-02T11:42:38.750Z,57.11
2022-09-02T11:43:38.708Z,58.47
2022-09-02T11:44:38.704Z,56.01
2022-09-02T11:45:38.724Z,53.67
2022-09-02T11:46:38.803Z,56.24
2022-09-02T11:47:39.166Z,57.13
2022-09-02T11:48:39.675Z,56.77
2022-09-02T11:49:38.673Z,58.32
2022-09-02T11:50:39.456Z,56.62
2022-09-02T11:51:39.647Z,58.55
2022-09-02T11:52:38.671Z,57.60
2022-09-02T11:53:38.636Z,56.86
2022-09-02T11:54:38.631Z,59.05
2022-09-02T11:55:38.657Z,62.03
2022-09-02T11:56:38.616Z,59.96
2022-09-02T11:57:38.605Z,58.45
2022-09-02T11:58:38.622Z,54.02
2022-09-02T11:59:38.593Z,58.01
2022-09-02T12:00:38.587Z,57.38
2022-09-02T12:01:44.039Z,55.71
2022-09-02T12:02:39.565Z,56.23
2022-09-02T12:03:52.082Z,56.94
2022-09-02T12:05:00.005Z,56.97
2022-09-02T12:05:40.636Z,57.11
2022-09-02T12:06:38.682Z,56.60
2022-09-02T12:07:38.526Z,56.01
2022-09-02T12:08:38.545Z,56.20
2022-09-02T12:09:38.538Z,52.53
2022-09-02T12:10:38.509Z,58.63
2022-09-02T12:11:38.501Z,56.64
2022-09-02T12:12:38.526Z,55.40
2022-09-02T12:13:38.957Z,55.00
2022-09-02T12:14:38.547Z,60.46
2022-09-02T12:15:38.508Z,56.54
2022-09-02T12:16:38.475Z,53.93
2022-09-02T12:17:38.451Z,58.36
2022-09-02T12:18:39.589Z,51.71
2022-09-02T12:19:38.443Z,55.12
2022-09-02T12:20:38.449Z,55.41
2022-09-02T12:21:38.437Z,56.54
2022-09-02T12:22:38.419Z,53.95
2022-09-02T12:23:38.439Z,57.97
2022-09-02T12:24:38.410Z,56.23
2022-09-02T12:25:38.406Z,55.95
2022-09-02T12:26:38.393Z,55.90
2022-09-02T12:27:38.394Z,56.55
2022-09-02T12:28:38.403Z,57.09
2022-09-02T12:29:39.834Z,59.52
2022-09-02T12:30:38.357Z,58.46
2022-09-02T12:31:38.433Z,57.22
2022-09-02T12:32:38.347Z,55.31
2022-09-02T12:33:38.377Z,57.25
2022-09-02T12:34:38.339Z,58.04
2022-09-02T12:35:38.402Z,56.76
2022-09-02T12:36:38.317Z,61.85
2022-09-02T12:37:38.310Z,54.92
2022-09-02T12:38:38.333Z,57.91
2022-09-02T12:39:38.296Z,57.82
2022-09-02T12:40:38.365Z,55.77
2022-09-02T12:41:38.283Z,57.81
2022-09-02T12:42:38.278Z,53.44
2022-09-02T12:43:38.289Z,55.05
2022-09-02T12:44:38.253Z,56.36
2022-09-02T12:45:38.243Z,57.67
2022-09-02T12:46:38.313Z,57.36
2022-09-02T12:47:38.241Z,57.61
2022-09-02T12:48:39.274Z,56.24
2022-09-02T12:49:38.230Z,54.94
2022-09-02T12:50:38.219Z,55.95
2022-09-02T12:51:38.209Z,55.00
2022-09-02T12:52:38.196Z,56.24
2022-09-02T12:53:38.227Z,55.84
2022-09-02T12:54:38.185Z,57.19
2022-09-02T12:55:38.191Z,55.82